sensor_id;sensor_type;location;lat;lon;timestamp;temperature;humidity
58517;DHT22;44308;50.810;0.284;2022-11-04T00:00:13;9.40;99.90
58517;DHT22;44308;50.810;0.284;2022-11-04T00:02:39;9.10;99.90
58517;DHT22;44308;50.810;0.284;2022-11-04T00:05:05;9.20;99.90
58517;DHT22;44308;50.810;0.284;2022-11-04T00:07:30;9.40;99.90
58517;DHT22;44308;50.810;0.284;2022-11-04T00:10:15;9.10;99.90
58517;DHT22;44308;50.810;0.284;2022-11-04T00:12:40;9.40;99.90
58517;DHT22;44308;50.810;0.284;2022-11-04T00:15:06;9.10;99.90
58517;DHT22;44308;50.810;0.284;2022-11-04T00:17:50;9.10;99.90
58517;DHT22;44308;50.810;0.284;2022-11-04T00:20:16;9.20;99.90
58517;DHT22;44308;50.810;0.284;2022-11-04T00:23:00;9.10;99.90
58517;DHT22;44308;50.810;0.284;2022-11-04T00:26:04;9.10;99.90
58517;DHT22;44308;50.810;0.284;2022-11-04T00:28:48;9.20;99.90
58517;DHT22;44308;50.810;0.284;2022-11-04T00:31:17;9.10;99.90
58517;DHT22;44308;50.810;0.284;2022-11-04T00:34:01;9.30;99.90
58517;DHT22;44308;50.810;0.284;2022-11-04T00:36:45;9.30;99.90
58517;DHT22;44308;50.810;0.284;2022-11-04T00:39:11;9.30;99.90
58517;DHT22;44308;50.810;0.284;2022-11-04T00:41:37;9.20;99.90
58517;DHT22;44308;50.810;0.284;2022-11-04T00:44:03;9.50;99.90
58517;DHT22;44308;50.810;0.284;2022-11-04T00:46:31;9.30;99.90
58517;DHT22;44308;50.810;0.284;2022-11-04T00:48:57;9.50;99.90
58517;DHT22;44308;50.810;0.284;2022-11-04T00:51:23;9.30;99.90
58517;DHT22;44308;50.810;0.284;2022-11-04T00:53:49;9.60;99.90
58517;DHT22;44308;50.810;0.284;2022-11-04T00:56:15;9.30;99.90
58517;DHT22;44308;50.810;0.284;2022-11-04T00:58:41;9.60;99.90
58517;DHT22;44308;50.810;0.284;2022-11-04T01:01:12;9.50;99.90
58517;DHT22;44308;50.810;0.284;2022-11-04T01:03:42;9.50;99.90
58517;DHT22;44308;50.810;0.284;2022-11-04T01:06:08;9.20;99.90
58517;DHT22;44308;50.810;0.284;2022-11-04T01:08:33;9.30;99.90
58517;DHT22;44308;50.810;0.284;2022-11-04T01:11:03;9.40;99.90
58517;DHT22;44308;50.810;0.284;2022-11-04T01:13:30;9.10;99.90
58517;DHT22;44308;50.810;0.284;2022-11-04T01:16:14;9.10;99.90
58517;DHT22;44308;50.810;0.284;2022-11-04T01:18:40;9.00;99.90
58517;DHT22;44308;50.810;0.284;2022-11-04T01:21:11;9.00;99.90
58517;DHT22;44308;50.810;0.284;2022-11-04T01:23:38;9.10;99.90
58517;DHT22;44308;50.810;0.284;2022-11-04T01:28:53;9.10;99.90
58517;DHT22;44308;50.810;0.284;2022-11-04T01:31:21;9.00;99.90
58517;DHT22;44308;50.810;0.284;2022-11-04T01:33:52;8.80;99.90
58517;DHT22;44308;50.810;0.284;2022-11-04T01:36:18;8.80;99.90
58517;DHT22;44308;50.810;0.284;2022-11-04T01:38:44;9.10;99.90
58517;DHT22;44308;50.810;0.284;2022-11-04T01:41:22;8.80;99.90
58517;DHT22;44308;50.810;0.284;2022-11-04T01:46:37;8.80;99.90
58517;DHT22;44308;50.810;0.284;2022-11-04T01:49:32;8.70;99.90
58517;DHT22;44308;50.810;0.284;2022-11-04T01:52:25;9.00;99.90
58517;DHT22;44308;50.810;0.284;2022-11-04T01:54:57;8.50;99.90
58517;DHT22;44308;50.810;0.284;2022-11-04T01:57:38;8.70;99.90
58517;DHT22;44308;50.810;0.284;2022-11-04T02:00:06;8.70;99.90
58517;DHT22;44308;50.810;0.284;2022-11-04T02:02:32;8.50;99.90
58517;DHT22;44308;50.810;0.284;2022-11-04T02:05:18;8.90;99.90
58517;DHT22;44308;50.810;0.284;2022-11-04T02:07:44;8.50;99.90
58517;DHT22;44308;50.810;0.284;2022-11-04T02:10:12;8.60;99.90
58517;DHT22;44308;50.810;0.284;2022-11-04T02:12:38;8.90;99.90
58517;DHT22;44308;50.810;0.284;2022-11-04T02:22:09;9.10;99.90
58517;DHT22;44308;50.810;0.284;2022-11-04T02:30:52;9.40;99.90
58517;DHT22;44308;50.810;0.284;2022-11-04T02:38:53;9.60;99.90
58517;DHT22;44308;50.810;0.284;2022-11-04T02:41:37;9.50;99.90
58517;DHT22;44308;50.810;0.284;2022-11-04T02:47:12;9.60;99.90
58517;DHT22;44308;50.810;0.284;2022-11-04T02:49:57;9.10;99.90
58517;DHT22;44308;50.810;0.284;2022-11-04T02:52:29;9.10;99.90
58517;DHT22;44308;50.810;0.284;2022-11-04T02:55:14;9.30;99.90
58517;DHT22;44308;50.810;0.284;2022-11-04T02:57:44;9.30;99.90
58517;DHT22;44308;50.810;0.284;2022-11-04T03:00:12;9.50;99.90
58517;DHT22;44308;50.810;0.284;2022-11-04T03:02:43;9.30;99.90
58517;DHT22;44308;50.810;0.284;2022-11-04T03:05:14;9.50;99.90
58517;DHT22;44308;50.810;0.284;2022-11-04T03:07:43;9.00;99.90
58517;DHT22;44308;50.810;0.284;2022-11-04T03:10:15;9.20;99.90
58517;DHT22;44308;50.810;0.284;2022-11-04T03:13:00;9.30;99.90
58517;DHT22;44308;50.810;0.284;2022-11-04T03:15:31;9.20;99.90
58517;DHT22;44308;50.810;0.284;2022-11-04T03:20:50;9.20;99.90
58517;DHT22;44308;50.810;0.284;2022-11-04T03:23:18;8.80;99.90
58517;DHT22;44308;50.810;0.284;2022-11-04T03:29:26;9.30;99.90
58517;DHT22;44308;50.810;0.284;2022-11-04T03:35:09;9.20;99.90
58517;DHT22;44308;50.810;0.284;2022-11-04T03:37:36;9.40;99.90
58517;DHT22;44308;50.810;0.284;2022-11-04T03:40:03;8.80;99.90
58517;DHT22;44308;50.810;0.284;2022-11-04T03:42:30;9.30;99.90
58517;DHT22;44308;50.810;0.284;2022-11-04T03:44:58;8.80;99.90
58517;DHT22;44308;50.810;0.284;2022-11-04T03:47:26;9.40;99.90
58517;DHT22;44308;50.810;0.284;2022-11-04T03:50:19;9.00;99.90
58517;DHT22;44308;50.810;0.284;2022-11-04T03:52:48;9.20;99.90
58517;DHT22;44308;50.810;0.284;2022-11-04T03:55:40;9.20;99.90
58517;DHT22;44308;50.810;0.284;2022-11-04T04:01:17;8.70;99.90
58517;DHT22;44308;50.810;0.284;2022-11-04T04:04:13;8.90;99.90
58517;DHT22;44308;50.810;0.284;2022-11-04T04:07:32;8.70;99.90
58517;DHT22;44308;50.810;0.284;2022-11-04T04:10:06;9.20;99.90
58517;DHT22;44308;50.810;0.284;2022-11-04T04:12:58;8.70;99.90
58517;DHT22;44308;50.810;0.284;2022-11-04T04:15:52;9.20;99.90
58517;DHT22;44308;50.810;0.284;2022-11-04T04:18:32;9.20;99.90
58517;DHT22;44308;50.810;0.284;2022-11-04T04:21:02;9.20;99.90
58517;DHT22;44308;50.810;0.284;2022-11-04T04:23:31;9.20;99.90
58517;DHT22;44308;50.810;0.284;2022-11-04T04:30:12;8.70;99.90
58517;DHT22;44308;50.810;0.284;2022-11-04T04:32:44;8.60;99.90
58517;DHT22;44308;50.810;0.284;2022-11-04T04:35:11;9.20;99.90
58517;DHT22;44308;50.810;0.284;2022-11-04T04:38:02;8.90;99.90
58517;DHT22;44308;50.810;0.284;2022-11-04T04:40:54;8.70;99.90
58517;DHT22;44308;50.810;0.284;2022-11-04T04:43:41;8.70;99.90
58517;DHT22;44308;50.810;0.284;2022-11-04T04:46:30;8.70;99.90
58517;DHT22;44308;50.810;0.284;2022-11-04T04:49:06;9.00;99.90
58517;DHT22;44308;50.810;0.284;2022-11-04T04:51:34;8.60;99.90
58517;DHT22;44308;50.810;0.284;2022-11-04T04:54:00;8.80;99.90
58517;DHT22;44308;50.810;0.284;2022-11-04T04:56:27;9.00;99.90
58517;DHT22;44308;50.810;0.284;2022-11-04T04:58:53;9.10;99.90
58517;DHT22;44308;50.810;0.284;2022-11-04T05:01:19;8.80;99.90
58517;DHT22;44308;50.810;0.284;2022-11-04T05:03:45;8.90;99.90
58517;DHT22;44308;50.810;0.284;2022-11-04T05:06:30;8.90;99.90
58517;DHT22;44308;50.810;0.284;2022-11-04T05:08:56;8.60;99.90
58517;DHT22;44308;50.810;0.284;2022-11-04T05:11:22;8.70;99.90
58517;DHT22;44308;50.810;0.284;2022-11-04T05:13:47;8.60;99.90
58517;DHT22;44308;50.810;0.284;2022-11-04T05:16:14;8.70;99.90
58517;DHT22;44308;50.810;0.284;2022-11-04T05:18:40;8.70;99.90
58517;DHT22;44308;50.810;0.284;2022-11-04T05:21:09;9.00;99.90
58517;DHT22;44308;50.810;0.284;2022-11-04T05:23:35;9.00;99.90
58517;DHT22;44308;50.810;0.284;2022-11-04T05:29:04;8.80;99.90
58517;DHT22;44308;50.810;0.284;2022-11-04T05:31:30;8.80;99.90
58517;DHT22;44308;50.810;0.284;2022-11-04T05:33:55;8.50;99.90
58517;DHT22;44308;50.810;0.284;2022-11-04T05:40:05;9.00;99.90
58517;DHT22;44308;50.810;0.284;2022-11-04T05:42:31;8.90;99.90
58517;DHT22;44308;50.810;0.284;2022-11-04T05:45:16;8.60;99.90
58517;DHT22;44308;50.810;0.284;2022-11-04T05:47:42;8.80;99.90
58517;DHT22;44308;50.810;0.284;2022-11-04T05:50:08;8.80;99.90
58517;DHT22;44308;50.810;0.284;2022-11-04T05:52:33;8.90;99.90
58517;DHT22;44308;50.810;0.284;2022-11-04T05:54:59;8.90;99.90
58517;DHT22;44308;50.810;0.284;2022-11-04T05:57:25;8.60;99.90
58517;DHT22;44308;50.810;0.284;2022-11-04T05:59:50;8.90;99.90
58517;DHT22;44308;50.810;0.284;2022-11-04T06:02:18;8.60;99.90
58517;DHT22;44308;50.810;0.284;2022-11-04T06:05:03;8.50;99.90
58517;DHT22;44308;50.810;0.284;2022-11-04T06:07:31;8.50;99.90
58517;DHT22;44308;50.810;0.284;2022-11-04T06:09:57;8.40;99.90
58517;DHT22;44308;50.810;0.284;2022-11-04T06:12:22;8.60;99.90
58517;DHT22;44308;50.810;0.284;2022-11-04T06:14:49;8.90;99.90
58517;DHT22;44308;50.810;0.284;2022-11-04T06:17:16;8.90;99.90
58517;DHT22;44308;50.810;0.284;2022-11-04T06:19:44;8.60;99.90
58517;DHT22;44308;50.810;0.284;2022-11-04T06:22:11;8.90;99.90
58517;DHT22;44308;50.810;0.284;2022-11-04T06:27:44;8.70;99.90
58517;DHT22;44308;50.810;0.284;2022-11-04T06:30:10;8.90;99.90
58517;DHT22;44308;50.810;0.284;2022-11-04T06:32:36;9.00;99.90
58517;DHT22;44308;50.810;0.284;2022-11-04T06:35:03;8.90;99.90
58517;DHT22;44308;50.810;0.284;2022-11-04T06:37:28;8.60;99.90
58517;DHT22;44308;50.810;0.284;2022-11-04T06:39:54;8.50;99.90
58517;DHT22;44308;50.810;0.284;2022-11-04T06:42:20;8.90;99.90
58517;DHT22;44308;50.810;0.284;2022-11-04T06:45:05;8.40;99.90
58517;DHT22;44308;50.810;0.284;2022-11-04T06:47:30;8.60;99.90
58517;DHT22;44308;50.810;0.284;2022-11-04T06:49:56;8.70;99.90
58517;DHT22;44308;50.810;0.284;2022-11-04T06:52:22;8.30;99.90
58517;DHT22;44308;50.810;0.284;2022-11-04T06:55:10;8.60;99.90
58517;DHT22;44308;50.810;0.284;2022-11-04T06:57:36;8.50;99.90
58517;DHT22;44308;50.810;0.284;2022-11-04T07:00:02;8.50;99.90
58517;DHT22;44308;50.810;0.284;2022-11-04T07:02:28;8.20;99.90
58517;DHT22;44308;50.810;0.284;2022-11-04T07:04:54;8.70;99.90
58517;DHT22;44308;50.810;0.284;2022-11-04T07:07:20;8.20;99.90
58517;DHT22;44308;50.810;0.284;2022-11-04T07:09:51;8.20;99.90
58517;DHT22;44308;50.810;0.284;2022-11-04T07:12:17;8.10;99.90
58517;DHT22;44308;50.810;0.284;2022-11-04T07:14:45;8.70;99.90
58517;DHT22;44308;50.810;0.284;2022-11-04T07:17:11;8.40;99.90
58517;DHT22;44308;50.810;0.284;2022-11-04T07:19:36;8.40;99.90
58517;DHT22;44308;50.810;0.284;2022-11-04T07:25:04;8.60;99.90
58517;DHT22;44308;50.810;0.284;2022-11-04T07:27:41;8.10;99.90
58517;DHT22;44308;50.810;0.284;2022-11-04T07:30:10;8.50;99.90
58517;DHT22;44308;50.810;0.284;2022-11-04T07:32:36;8.30;99.90
58517;DHT22;44308;50.810;0.284;2022-11-04T07:35:01;8.10;99.90
58517;DHT22;44308;50.810;0.284;2022-11-04T07:37:30;8.50;99.90
58517;DHT22;44308;50.810;0.284;2022-11-04T07:39:56;7.90;99.90
58517;DHT22;44308;50.810;0.284;2022-11-04T07:42:21;8.40;99.90
58517;DHT22;44308;50.810;0.284;2022-11-04T07:44:47;7.80;99.90
58517;DHT22;44308;50.810;0.284;2022-11-04T07:47:13;8.20;99.90
58517;DHT22;44308;50.810;0.284;2022-11-04T07:49:38;7.80;99.90
58517;DHT22;44308;50.810;0.284;2022-11-04T07:52:04;8.40;99.90
58517;DHT22;44308;50.810;0.284;2022-11-04T07:54:30;8.30;99.90
58517;DHT22;44308;50.810;0.284;2022-11-04T07:56:56;7.90;99.90
58517;DHT22;44308;50.810;0.284;2022-11-04T07:59:22;8.10;99.90
58517;DHT22;44308;50.810;0.284;2022-11-04T08:01:48;8.00;99.90
58517;DHT22;44308;50.810;0.284;2022-11-04T08:04:14;8.00;99.90
58517;DHT22;44308;50.810;0.284;2022-11-04T08:06:40;7.90;99.90
58517;DHT22;44308;50.810;0.284;2022-11-04T08:09:05;7.90;99.90
58517;DHT22;44308;50.810;0.284;2022-11-04T08:11:31;8.50;99.90
58517;DHT22;44308;50.810;0.284;2022-11-04T08:14:02;8.10;99.90
58517;DHT22;44308;50.810;0.284;2022-11-04T08:16:49;8.00;99.90
58517;DHT22;44308;50.810;0.284;2022-11-04T08:19:14;8.00;99.90
58517;DHT22;44308;50.810;0.284;2022-11-04T08:21:43;8.30;99.90
58517;DHT22;44308;50.810;0.284;2022-11-04T08:24:08;8.00;99.90
58517;DHT22;44308;50.810;0.284;2022-11-04T08:26:36;8.50;99.90
58517;DHT22;44308;50.810;0.284;2022-11-04T08:29:08;8.70;99.90
58517;DHT22;44308;50.810;0.284;2022-11-04T08:31:34;8.20;99.90
58517;DHT22;44308;50.810;0.284;2022-11-04T08:34:00;8.70;99.90
58517;DHT22;44308;50.810;0.284;2022-11-04T08:36:33;8.90;99.90
58517;DHT22;44308;50.810;0.284;2022-11-04T08:39:01;8.80;99.90
58517;DHT22;44308;50.810;0.284;2022-11-04T08:41:30;9.00;99.90
58517;DHT22;44308;50.810;0.284;2022-11-04T08:43:56;9.00;99.90
58517;DHT22;44308;50.810;0.284;2022-11-04T08:49:47;8.60;99.90
58517;DHT22;44308;50.810;0.284;2022-11-04T08:52:13;9.10;99.90
58517;DHT22;44308;50.810;0.284;2022-11-04T08:54:40;8.80;99.90
58517;DHT22;44308;50.810;0.284;2022-11-04T08:57:06;8.60;99.90
58517;DHT22;44308;50.810;0.284;2022-11-04T08:59:31;8.60;99.90
58517;DHT22;44308;50.810;0.284;2022-11-04T09:02:08;9.20;99.90
58517;DHT22;44308;50.810;0.284;2022-11-04T09:04:37;9.20;99.90
58517;DHT22;44308;50.810;0.284;2022-11-04T09:07:03;9.40;99.90
58517;DHT22;44308;50.810;0.284;2022-11-04T09:09:31;9.90;99.90
58517;DHT22;44308;50.810;0.284;2022-11-04T09:11:56;10.30;99.90
58517;DHT22;44308;50.810;0.284;2022-11-04T09:14:25;10.20;99.90
58517;DHT22;44308;50.810;0.284;2022-11-04T09:16:59;10.80;99.90
58517;DHT22;44308;50.810;0.284;2022-11-04T09:19:24;10.90;99.90
58517;DHT22;44308;50.810;0.284;2022-11-04T09:21:51;11.10;99.90
58517;DHT22;44308;50.810;0.284;2022-11-04T09:24:17;11.10;99.90
58517;DHT22;44308;50.810;0.284;2022-11-04T09:26:43;11.90;99.90
58517;DHT22;44308;50.810;0.284;2022-11-04T09:29:09;12.10;99.90
58517;DHT22;44308;50.810;0.284;2022-11-04T09:31:35;12.40;99.90
58517;DHT22;44308;50.810;0.284;2022-11-04T09:34:02;12.70;99.90
58517;DHT22;44308;50.810;0.284;2022-11-04T09:36:27;12.80;99.90
58517;DHT22;44308;50.810;0.284;2022-11-04T09:38:54;12.90;99.90
58517;DHT22;44308;50.810;0.284;2022-11-04T09:46:45;13.10;99.90
58517;DHT22;44308;50.810;0.284;2022-11-04T09:49:14;13.30;99.90
58517;DHT22;44308;50.810;0.284;2022-11-04T09:51:42;13.50;99.90
58517;DHT22;44308;50.810;0.284;2022-11-04T09:54:22;13.50;99.90
58517;DHT22;44308;50.810;0.284;2022-11-04T09:56:51;14.00;99.90
58517;DHT22;44308;50.810;0.284;2022-11-04T09:59:31;13.90;99.90
58517;DHT22;44308;50.810;0.284;2022-11-04T10:05:17;13.90;99.90
58517;DHT22;44308;50.810;0.284;2022-11-04T10:08:28;14.00;99.90
58517;DHT22;44308;50.810;0.284;2022-11-04T10:11:03;14.30;99.90
58517;DHT22;44308;50.810;0.284;2022-11-04T10:13:44;14.20;99.90
58517;DHT22;44308;50.810;0.284;2022-11-04T10:22:20;14.70;99.90
58517;DHT22;44308;50.810;0.284;2022-11-04T10:25:19;14.60;99.90
58517;DHT22;44308;50.810;0.284;2022-11-04T10:27:46;14.60;99.90
58517;DHT22;44308;50.810;0.284;2022-11-04T10:30:19;14.80;99.90
58517;DHT22;44308;50.810;0.284;2022-11-04T10:33:00;14.60;99.90
58517;DHT22;44308;50.810;0.284;2022-11-04T10:35:39;14.40;99.90
58517;DHT22;44308;50.810;0.284;2022-11-04T10:40:52;14.30;99.90
58517;DHT22;44308;50.810;0.284;2022-11-04T10:43:37;13.90;99.90
58517;DHT22;44308;50.810;0.284;2022-11-04T10:46:42;14.40;99.90
58517;DHT22;44308;50.810;0.284;2022-11-04T10:51:51;14.50;99.90
58517;DHT22;44308;50.810;0.284;2022-11-04T10:54:18;14.30;99.90
58517;DHT22;44308;50.810;0.284;2022-11-04T10:56:51;14.30;99.90
58517;DHT22;44308;50.810;0.284;2022-11-04T11:01:58;14.20;99.90
58517;DHT22;44308;50.810;0.284;2022-11-04T11:04:32;14.20;99.90
58517;DHT22;44308;50.810;0.284;2022-11-04T11:07:04;14.30;99.90
58517;DHT22;44308;50.810;0.284;2022-11-04T11:09:53;14.40;99.90
58517;DHT22;44308;50.810;0.284;2022-11-04T11:12:23;14.20;99.90
58517;DHT22;44308;50.810;0.284;2022-11-04T11:20:31;14.10;99.90
58517;DHT22;44308;50.810;0.284;2022-11-04T11:23:00;14.30;99.90
58517;DHT22;44308;50.810;0.284;2022-11-04T11:25:29;14.20;99.90
58517;DHT22;44308;50.810;0.284;2022-11-04T11:27:56;14.10;99.90
58517;DHT22;44308;50.810;0.284;2022-11-04T11:32:55;13.90;99.90
58517;DHT22;44308;50.810;0.284;2022-11-04T11:35:26;14.10;99.90
58517;DHT22;44308;50.810;0.284;2022-11-04T11:37:52;13.90;99.90
58517;DHT22;44308;50.810;0.284;2022-11-04T11:40:24;14.00;99.90
58517;DHT22;44308;50.810;0.284;2022-11-04T11:42:50;14.00;99.90
58517;DHT22;44308;50.810;0.284;2022-11-04T11:45:34;14.00;99.90
58517;DHT22;44308;50.810;0.284;2022-11-04T11:48:00;14.10;99.90
58517;DHT22;44308;50.810;0.284;2022-11-04T11:50:30;14.00;99.90
58517;DHT22;44308;50.810;0.284;2022-11-04T11:53:16;14.20;99.90
58517;DHT22;44308;50.810;0.284;2022-11-04T12:05:00;14.20;99.90
58517;DHT22;44308;50.810;0.284;2022-11-04T12:21:22;14.30;99.90
58517;DHT22;44308;50.810;0.284;2022-11-04T12:23:55;14.30;99.90
58517;DHT22;44308;50.810;0.284;2022-11-04T12:26:49;14.30;99.90
58517;DHT22;44308;50.810;0.284;2022-11-04T12:29:30;14.40;99.90
58517;DHT22;44308;50.810;0.284;2022-11-04T12:40:32;14.70;99.90
58517;DHT22;44308;50.810;0.284;2022-11-04T12:52:05;14.60;99.90
58517;DHT22;44308;50.810;0.284;2022-11-04T13:00:08;14.80;99.90
58517;DHT22;44308;50.810;0.284;2022-11-04T13:02:51;14.80;99.90
58517;DHT22;44308;50.810;0.284;2022-11-04T13:05:29;14.70;99.90
58517;DHT22;44308;50.810;0.284;2022-11-04T13:10:56;14.80;99.90
58517;DHT22;44308;50.810;0.284;2022-11-04T13:13:28;14.80;99.90
58517;DHT22;44308;50.810;0.284;2022-11-04T13:21:58;14.80;99.90
58517;DHT22;44308;50.810;0.284;2022-11-04T13:24:31;14.90;99.90
58517;DHT22;44308;50.810;0.284;2022-11-04T13:27:00;14.90;99.90
58517;DHT22;44308;50.810;0.284;2022-11-04T13:29:28;14.80;99.90
58517;DHT22;44308;50.810;0.284;2022-11-04T13:32:04;14.70;99.90
58517;DHT22;44308;50.810;0.284;2022-11-04T13:34:56;14.60;99.90
58517;DHT22;44308;50.810;0.284;2022-11-04T13:37:32;14.70;99.90
58517;DHT22;44308;50.810;0.284;2022-11-04T13:40:16;14.80;99.90
58517;DHT22;44308;50.810;0.284;2022-11-04T13:45:13;14.50;99.90
58517;DHT22;44308;50.810;0.284;2022-11-04T13:47:52;14.30;99.90
58517;DHT22;44308;50.810;0.284;2022-11-04T13:50:33;14.30;99.90
58517;DHT22;44308;50.810;0.284;2022-11-04T13:52:59;14.50;99.90
58517;DHT22;44308;50.810;0.284;2022-11-04T13:55:48;14.60;99.90
58517;DHT22;44308;50.810;0.284;2022-11-04T13:58:24;14.50;99.90
58517;DHT22;44308;50.810;0.284;2022-11-04T14:14:50;13.90;99.90
58517;DHT22;44308;50.810;0.284;2022-11-04T14:28:24;13.80;99.90
58517;DHT22;44308;50.810;0.284;2022-11-04T14:35:48;14.10;99.90
58517;DHT22;44308;50.810;0.284;2022-11-04T14:38:29;14.10;99.90
58517;DHT22;44308;50.810;0.284;2022-11-04T14:43:49;14.20;99.90
58517;DHT22;44308;50.810;0.284;2022-11-04T14:50:13;14.00;99.90
58517;DHT22;44308;50.810;0.284;2022-11-04T14:58:22;13.80;99.90
58517;DHT22;44308;50.810;0.284;2022-11-04T15:03:21;13.70;99.90
58517;DHT22;44308;50.810;0.284;2022-11-04T15:05:52;13.50;99.90
58517;DHT22;44308;50.810;0.284;2022-11-04T15:11:19;13.50;99.90
58517;DHT22;44308;50.810;0.284;2022-11-04T15:17:02;13.20;99.90
58517;DHT22;44308;50.810;0.284;2022-11-04T15:19:32;13.20;99.90
58517;DHT22;44308;50.810;0.284;2022-11-04T15:22:00;13.10;99.90
58517;DHT22;44308;50.810;0.284;2022-11-04T15:24:27;13.10;99.90
58517;DHT22;44308;50.810;0.284;2022-11-04T15:29:52;12.80;99.90
58517;DHT22;44308;50.810;0.284;2022-11-04T15:32:18;12.70;99.90
58517;DHT22;44308;50.810;0.284;2022-11-04T15:34:46;12.60;99.90
58517;DHT22;44308;50.810;0.284;2022-11-04T15:37:12;12.50;99.90
58517;DHT22;44308;50.810;0.284;2022-11-04T15:39:47;12.40;99.90
58517;DHT22;44308;50.810;0.284;2022-11-04T15:42:19;12.30;99.90
58517;DHT22;44308;50.810;0.284;2022-11-04T15:48:30;12.10;99.90
58517;DHT22;44308;50.810;0.284;2022-11-04T15:51:20;12.00;99.90
58517;DHT22;44308;50.810;0.284;2022-11-04T15:54:18;11.90;99.90
58517;DHT22;44308;50.810;0.284;2022-11-04T15:56:49;11.80;99.90
58517;DHT22;44308;50.810;0.284;2022-11-04T16:01:52;11.60;99.90
58517;DHT22;44308;50.810;0.284;2022-11-04T16:04:21;11.40;99.90
58517;DHT22;44308;50.810;0.284;2022-11-04T16:09:31;11.20;99.90
58517;DHT22;44308;50.810;0.284;2022-11-04T16:12:14;11.10;99.90
58517;DHT22;44308;50.810;0.284;2022-11-04T16:14:53;11.10;99.90
58517;DHT22;44308;50.810;0.284;2022-11-04T16:17:20;10.90;99.90
58517;DHT22;44308;50.810;0.284;2022-11-04T16:19:50;10.80;99.90
58517;DHT22;44308;50.810;0.284;2022-11-04T16:22:22;10.60;99.90
58517;DHT22;44308;50.810;0.284;2022-11-04T16:24:50;10.50;99.90
58517;DHT22;44308;50.810;0.284;2022-11-04T16:27:19;10.50;99.90
58517;DHT22;44308;50.810;0.284;2022-11-04T16:32:43;10.40;99.90
58517;DHT22;44308;50.810;0.284;2022-11-04T16:37:43;10.20;99.90
58517;DHT22;44308;50.810;0.284;2022-11-04T16:40:09;10.30;99.90
58517;DHT22;44308;50.810;0.284;2022-11-04T16:42:35;10.00;99.90
58517;DHT22;44308;50.810;0.284;2022-11-04T16:48:24;9.80;99.90
58517;DHT22;44308;50.810;0.284;2022-11-04T16:50:51;9.90;99.90
58517;DHT22;44308;50.810;0.284;2022-11-04T16:53:17;9.90;99.90
58517;DHT22;44308;50.810;0.284;2022-11-04T16:55:44;9.70;99.90
58517;DHT22;44308;50.810;0.284;2022-11-04T16:58:16;9.70;99.90
58517;DHT22;44308;50.810;0.284;2022-11-04T17:00:42;9.60;99.90
58517;DHT22;44308;50.810;0.284;2022-11-04T17:03:16;9.70;99.90
58517;DHT22;44308;50.810;0.284;2022-11-04T17:06:04;9.70;99.90
58517;DHT22;44308;50.810;0.284;2022-11-04T17:08:31;9.60;99.90
58517;DHT22;44308;50.810;0.284;2022-11-04T17:10:57;9.60;99.90
58517;DHT22;44308;50.810;0.284;2022-11-04T17:13:23;9.40;99.90
58517;DHT22;44308;50.810;0.284;2022-11-04T17:16:10;9.30;99.90
58517;DHT22;44308;50.810;0.284;2022-11-04T17:18:37;9.30;99.90
58517;DHT22;44308;50.810;0.284;2022-11-04T17:21:07;9.10;99.90
58517;DHT22;44308;50.810;0.284;2022-11-04T17:23:33;9.10;99.90
58517;DHT22;44308;50.810;0.284;2022-11-04T17:26:02;9.10;99.90
58517;DHT22;44308;50.810;0.284;2022-11-04T17:28:28;9.10;99.90
58517;DHT22;44308;50.810;0.284;2022-11-04T17:30:55;9.10;99.90
58517;DHT22;44308;50.810;0.284;2022-11-04T17:33:21;9.10;99.90
58517;DHT22;44308;50.810;0.284;2022-11-04T17:35:49;9.00;99.90
58517;DHT22;44308;50.810;0.284;2022-11-04T17:38:16;9.00;99.90
58517;DHT22;44308;50.810;0.284;2022-11-04T17:40:43;8.90;99.90
58517;DHT22;44308;50.810;0.284;2022-11-04T17:43:27;8.90;99.90
58517;DHT22;44308;50.810;0.284;2022-11-04T17:46:14;8.90;99.90
58517;DHT22;44308;50.810;0.284;2022-11-04T17:49:02;9.00;99.90
58517;DHT22;44308;50.810;0.284;2022-11-04T17:51:29;9.00;99.90
58517;DHT22;44308;50.810;0.284;2022-11-04T17:53:55;8.90;99.90
58517;DHT22;44308;50.810;0.284;2022-11-04T17:56:23;8.70;99.90
58517;DHT22;44308;50.810;0.284;2022-11-04T17:58:49;8.70;99.90
58517;DHT22;44308;50.810;0.284;2022-11-04T18:01:17;8.60;99.90
58517;DHT22;44308;50.810;0.284;2022-11-04T18:03:45;8.70;99.90
58517;DHT22;44308;50.810;0.284;2022-11-04T18:06:12;8.60;99.90
58517;DHT22;44308;50.810;0.284;2022-11-04T18:08:38;8.50;99.90
58517;DHT22;44308;50.810;0.284;2022-11-04T18:11:07;8.60;99.90
58517;DHT22;44308;50.810;0.284;2022-11-04T18:13:34;8.50;99.90
58517;DHT22;44308;50.810;0.284;2022-11-04T18:16:18;8.50;99.90
58517;DHT22;44308;50.810;0.284;2022-11-04T18:18:43;8.30;99.90
58517;DHT22;44308;50.810;0.284;2022-11-04T18:21:09;8.40;99.90
58517;DHT22;44308;50.810;0.284;2022-11-04T18:23:35;8.10;99.90
58517;DHT22;44308;50.810;0.284;2022-11-04T18:26:09;8.10;99.90
58517;DHT22;44308;50.810;0.284;2022-11-04T18:28:38;8.20;99.90
58517;DHT22;44308;50.810;0.284;2022-11-04T18:31:16;7.90;99.90
58517;DHT22;44308;50.810;0.284;2022-11-04T18:33:44;8.00;99.90
58517;DHT22;44308;50.810;0.284;2022-11-04T18:36:29;7.90;99.90
58517;DHT22;44308;50.810;0.284;2022-11-04T18:38:55;8.00;99.90
58517;DHT22;44308;50.810;0.284;2022-11-04T18:41:21;7.80;99.90
58517;DHT22;44308;50.810;0.284;2022-11-04T18:43:47;7.60;99.90
58517;DHT22;44308;50.810;0.284;2022-11-04T18:46:16;7.80;99.90
58517;DHT22;44308;50.810;0.284;2022-11-04T18:48:42;7.80;99.90
58517;DHT22;44308;50.810;0.284;2022-11-04T18:51:11;7.60;99.90
58517;DHT22;44308;50.810;0.284;2022-11-04T18:53:37;7.70;99.90
58517;DHT22;44308;50.810;0.284;2022-11-04T18:56:09;7.60;99.90
58517;DHT22;44308;50.810;0.284;2022-11-04T18:58:37;7.60;99.90
58517;DHT22;44308;50.810;0.284;2022-11-04T19:01:11;7.60;99.90
58517;DHT22;44308;50.810;0.284;2022-11-04T19:03:37;7.30;99.90
58517;DHT22;44308;50.810;0.284;2022-11-04T19:06:08;7.40;99.90
58517;DHT22;44308;50.810;0.284;2022-11-04T19:08:34;7.30;99.90
58517;DHT22;44308;50.810;0.284;2022-11-04T19:11:04;7.40;99.90
58517;DHT22;44308;50.810;0.284;2022-11-04T19:13:33;7.50;99.90
58517;DHT22;44308;50.810;0.284;2022-11-04T19:16:12;7.30;99.90
58517;DHT22;44308;50.810;0.284;2022-11-04T19:18:38;7.40;99.90
58517;DHT22;44308;50.810;0.284;2022-11-04T19:21:07;7.20;99.90
58517;DHT22;44308;50.810;0.284;2022-11-04T19:23:33;7.30;99.90
58517;DHT22;44308;50.810;0.284;2022-11-04T19:26:19;7.40;99.90
58517;DHT22;44308;50.810;0.284;2022-11-04T19:28:45;7.10;99.90
58517;DHT22;44308;50.810;0.284;2022-11-04T19:31:13;7.00;99.90
58517;DHT22;44308;50.810;0.284;2022-11-04T19:33:39;7.30;99.90
58517;DHT22;44308;50.810;0.284;2022-11-04T19:36:25;7.00;99.90
58517;DHT22;44308;50.810;0.284;2022-11-04T19:38:52;7.10;99.90
58517;DHT22;44308;50.810;0.284;2022-11-04T19:41:19;6.90;99.90
58517;DHT22;44308;50.810;0.284;2022-11-04T19:44:07;6.90;99.90
58517;DHT22;44308;50.810;0.284;2022-11-04T19:46:33;7.10;99.90
58517;DHT22;44308;50.810;0.284;2022-11-04T19:48:59;7.10;99.90